Main page
METAR-TAF:

METAR-TAF

Airports :

Middle Wallop, England

AAC Middle Wallop

latitude: 51-09N, longitude: 001-34W, elevation: 91 m

Current weather observation

The report was made 42 minutes ago, at 12:50 UTC
Wind 15 kt from the West/Northwest with gusts up to 25 kt
Temperature 13°C
Humidity 58%
Pressure 1015 hPa
Visibility 10 km or more

METAR: EGVP 221250Z AUTO 29015G25KT 9999 // BKN050/// 13/05 Q1015

Time: 14:32 (13:32 UTC)


TAF: missing

Weather observations and forecasts of more than 4000 airports (METAR and TAF reports).

The available stations are represented by yellow and red dots on the map.

Hover mouse over dot to see the name of the station.

Then click to see weather observations and forecasts.

To change the map : click on the green buttons with a black cross to zoom in, on the green button with a dash to zoom out, or on the green arrows for adjacent maps.


METAR-TAF: